Аэропорт: Симферополь. Симферополь

ICAO: URFF

METAR:
2021-04-21 21:00:00
URFF 212100Z 19005MPS CAVOK 06/04 Q1019 R19/090095 NOSIG
METAR:
2021-04-21 19:51:00
TAF URFF 211951Z 2121/2221 18003MPS CAVOK TX16/2212Z TN05/2203Z FM220700 24006G11MPS 9999 SCT030CB BECMG 2215/2216 18003MPS SCT016